Thursday, September 20, 2018, 6:20 PM EDT
Back to Local

KHFD, Hartford-brainard Airport

Location: Hartford, CT, United States Lat: 41.733
Local Time: 6:20 PM EDT (22:20 GMT) Lon: -72.65
Time Zone: US/Eastern Elev: 19 ft

Show me the last for .
Show Decoded

2018-09-20 17:53 METAR KHFD 202153Z 14003KT 10SM BKN050 21/13 A3022 RMK AO2 SLP234 T02110128 =
2018-09-20 16:53 METAR KHFD 202053Z 09003KT 10SM BKN050 22/13 A3021 RMK AO2 SLP230 T02170133
                 56006 =
2018-09-20 15:53 METAR KHFD 201953Z VRB03KT 10SM SCT037 BKN050 22/13 A3021 RMK AO2 SLP231
                 T02220128 =
2018-09-20 14:53 METAR KHFD 201853Z VRB03KT 10SM BKN037 21/13 A3021 RMK AO2 SLP230 T02110128 =
2018-09-20 13:57 METAR KHFD 201757Z 00000KT 10SM BKN033 22/13 A3023 RMK AO2 T02170133 =
2018-09-20 13:53 METAR KHFD 201753Z 02004KT 10SM BKN025 22/13 A3023 RMK AO2 SLP236 T02170133
                 10222 20167 58011 =
2018-09-20 12:53 METAR KHFD 201653Z COR 01008KT 10SM SCT025 21/13 A3024 RMK AO2 SLP241 T02110133
                 =
2018-09-20 11:53 METAR KHFD 201553Z 36007KT 10SM SCT025 OVC055 20/13 A3025 RMK AO2 SLP244
                 T02000133 =
2018-09-20 11:46 METAR KHFD 201546Z 02006KT 10SM SCT025 OVC055 19/13 A3025 RMK AO2 T01940133 =
2018-09-20 10:53 METAR KHFD 201453Z 03007KT 10SM OVC025 18/13 A3026 RMK AO2 SLP247 T01830133
                 51021 =
2018-09-20 09:53 METAR KHFD 201353Z 36007KT 10SM OVC022 18/13 A3024 RMK AO2 SLP240 T01780128 =
2018-09-20 09:01 METAR KHFD 201301Z 01007KT 10SM BKN021 OVC055 17/13 A3023 RMK AO2 T01720128 =
2018-09-20 08:53 METAR KHFD 201253Z 01008KT 10SM SCT021 OVC055 17/13 A3023 RMK AO2 SLP235
                 T01720128 =
2018-09-20 08:33 METAR KHFD 201233Z 01005KT 10SM SCT023 OVC055 17/13 A3021 RMK AO2 T01720128 =
2018-09-20 07:53 METAR KHFD 201153Z 02005KT 10SM OVC024 17/13 A3020 RMK AO2 SLP226 T01670128
                 10172 20161 52023 =
2018-09-20 06:53 METAR KHFD 201053Z 02007KT 10SM BKN025 OVC055 17/13 A3018 RMK AO2 SLP219
                 T01670128 =
2018-09-20 06:46 METAR KHFD 201046Z 02005KT 10SM BKN025 OVC055 16/13 A3018 RMK AO2 T01610128 =
2018-09-20 05:53 METAR KHFD 200953Z 01005KT 10SM SCT023 OVC060 17/13 A3015 RMK AO2 SLP210
                 T01670128 =
2018-09-20 05:45 METAR KHFD 200945Z AUTO 01006KT 10SM SCT023 OVC060 17/13 A3015 RMK AO2 T01670128
                 =
2018-09-20 05:32 METAR KHFD 200932Z AUTO 01007KT 10SM BKN023 OVC038 17/13 A3015 RMK AO2 T01670128
                 =
2018-09-20 04:53 METAR KHFD 200853Z AUTO 02007KT 10SM FEW037 OVC060 17/13 A3013 RMK AO2 SLP203
                 T01670128 51008 =
2018-09-20 03:53 METAR KHFD 200753Z AUTO 02006KT 10SM OVC033 17/13 A3013 RMK AO2 SLP202 T01670128
                 =
2018-09-20 02:53 METAR KHFD 200653Z AUTO 03007KT 10SM OVC033 17/12 A3012 RMK AO2 SLP199 T01670122
                 =
2018-09-20 01:53 METAR KHFD 200553Z AUTO 06003KT 10SM OVC031 17/13 A3011 RMK AO2 SLP196 T01720128
                 10200 20172 51004 =
2018-09-20 01:49 METAR KHFD 200549Z AUTO 00000KT 10SM OVC031 17/13 A3011 RMK AO2 =
2018-09-20 00:53 METAR KHFD 200453Z AUTO 08004KT 10SM OVC027 17/13 A3011 RMK AO2 SLP194 T01720133
                 402560172 =
2018-09-19 23:53 METAR KHFD 200353Z 08007KT 10SM OVC021 18/13 A3010 RMK AO2 SLP192 T01780133 =
2018-09-19 22:53 METAR KHFD 200253Z 06004KT 10SM FEW023 OVC029 18/13 A3009 RMK AO2 SLP187
                 T01830133 51024 =
2018-09-19 21:53 METAR KHFD 200153Z 09005KT 10SM FEW019 OVC029 18/14 A3007 RMK AO2 SLP182
                 T01830144 =
2018-09-19 20:53 METAR KHFD 200053Z 08004KT 10SM BKN017 OVC030 19/16 A3005 RMK AO2 SLP176
                 T01890156 =
2018-09-19 20:37 METAR KHFD 200037Z 08003KT 10SM OVC030 19/15 A3004 RMK AO2 T01890150 =
2018-09-19 19:53 METAR KHFD 192353Z 08003KT 10SM BKN028 OVC039 19/16 A3002 RMK AO2 SLP164
                 T01890156 10256 20189 51029 =
2018-09-19 18:53 METAR KHFD 192253Z 11007KT 10SM BKN036 OVC044 20/16 A2999 RMK AO2 SLP154
                 T02000161 =

Support USWX by starting your Amazon purchase here.